createdAt,value
2023-05-10T00:01:52.984Z,98954.47
2023-05-10T00:04:20.120Z,98953.44
2023-05-10T00:06:47.298Z,98950.09
2023-05-10T00:09:14.614Z,98953.44
2023-05-10T00:11:41.772Z,98951.94
2023-05-10T00:14:10.353Z,98948.44
2023-05-10T00:16:37.482Z,98960.06
2023-05-10T00:19:04.720Z,98957.16
2023-05-10T00:21:31.880Z,98956.53
2023-05-10T00:23:58.926Z,98952.16
2023-05-10T00:26:26.230Z,98950.47
2023-05-10T00:28:55.971Z,98951.13
2023-05-10T00:31:24.491Z,98952.59
2023-05-10T00:33:51.604Z,98950.94
2023-05-10T00:36:18.678Z,98954.66
2023-05-10T00:38:45.814Z,98954.28
2023-05-10T00:41:12.935Z,98953.44
2023-05-10T00:43:41.210Z,98942.66
2023-05-10T00:46:08.712Z,98945.72
2023-05-10T00:48:37.329Z,98949.06
2023-05-10T00:51:04.597Z,98944.94
2023-05-10T00:53:32.595Z,98943.91
2023-05-10T00:56:00.152Z,98943.16
2023-05-10T00:58:27.620Z,98945.66
2023-05-10T01:00:55.806Z,98957.88
2023-05-10T01:03:23.488Z,98954.44
2023-05-10T01:05:52.153Z,98946.72
2023-05-10T01:08:19.418Z,98947.50
2023-05-10T01:10:46.649Z,98952.22
2023-05-10T01:13:14.703Z,98947.31
2023-05-10T01:15:42.032Z,98944.00
2023-05-10T01:18:09.789Z,98938.59
2023-05-10T01:20:41.235Z,98937.19
2023-05-10T01:23:29.608Z,98929.31
2023-05-10T01:26:15.593Z,98935.28
2023-05-10T01:29:03.549Z,98931.94
2023-05-10T01:31:41.701Z,98932.53
2023-05-10T01:34:14.039Z,98924.59
2023-05-10T01:36:43.030Z,98936.22
2023-05-10T01:39:12.952Z,98923.31
2023-05-10T01:41:43.970Z,98920.41
2023-05-10T01:44:14.325Z,98917.72
2023-05-10T01:46:41.853Z,98921.91
2023-05-10T01:49:12.226Z,98924.94
2023-05-10T01:51:42.593Z,98926.47
2023-05-10T01:54:11.243Z,98920.50
2023-05-10T01:56:39.271Z,98916.16
2023-05-10T01:59:09.245Z,98919.75
2023-05-10T02:01:37.924Z,98916.22
2023-05-10T02:04:05.966Z,98912.31
2023-05-10T02:06:35.236Z,98911.09
2023-05-10T02:09:02.864Z,98909.66
2023-05-10T02:11:32.054Z,98907.44
2023-05-10T02:14:00.043Z,98907.44
2023-05-10T02:16:29.470Z,98904.09
2023-05-10T02:18:57.952Z,98899.97
2023-05-10T02:21:25.560Z,98899.56
2023-05-10T02:23:54.859Z,98896.88
2023-05-10T02:26:23.358Z,98900.28
2023-05-10T02:28:50.712Z,98901.28
2023-05-10T02:31:18.195Z,98896.75
2023-05-10T02:33:46.905Z,98895.75
2023-05-10T02:36:14.935Z,98886.56
2023-05-10T02:38:42.246Z,98893.63
2023-05-10T02:41:11.134Z,98894.91
2023-05-10T02:43:38.800Z,98893.44
2023-05-10T02:46:06.705Z,98888.97
2023-05-10T02:48:36.202Z,98890.78
2023-05-10T02:51:06.215Z,98893.44
2023-05-10T02:53:35.641Z,98893.91
2023-05-10T02:56:05.368Z,98891.81
2023-05-10T02:58:33.945Z,98887.28
2023-05-10T03:01:01.496Z,98876.94
2023-05-10T03:03:28.674Z,98883.19
2023-05-10T03:05:56.000Z,98884.13
2023-05-10T03:08:23.637Z,98879.84
2023-05-10T03:11:02.990Z,98882.13
2023-05-10T03:13:33.199Z,98876.41
2023-05-10T03:16:06.088Z,98881.13
2023-05-10T03:18:37.061Z,98869.09
2023-05-10T03:21:08.725Z,98877.84
2023-05-10T03:23:36.777Z,98874.97
2023-05-10T03:26:05.972Z,98871.69
2023-05-10T03:28:34.483Z,98871.28
2023-05-10T03:31:03.872Z,98869.63
2023-05-10T03:33:32.258Z,98861.91
2023-05-10T03:36:00.487Z,98874.69
2023-05-10T03:38:30.360Z,98866.81
2023-05-10T03:40:58.096Z,98866.41
2023-05-10T03:43:25.755Z,98863.88
2023-05-10T03:45:52.979Z,98859.06
2023-05-10T03:48:22.005Z,98857.66
2023-05-10T03:50:49.397Z,98866.00
2023-05-10T03:53:16.640Z,98859.34
2023-05-10T03:55:44.270Z,98858.94
2023-05-10T03:58:12.342Z,98856.00
2023-05-10T04:00:39.526Z,98857.53
2023-05-10T04:03:07.009Z,98847.78
2023-05-10T04:05:35.720Z,98852.31
2023-05-10T04:08:03.445Z,98848.44
2023-05-10T04:10:31.362Z,98841.34
2023-05-10T04:12:58.464Z,98841.34
2023-05-10T04:15:26.148Z,98837.72
2023-05-10T04:17:53.257Z,98833.59
2023-05-10T04:20:20.555Z,98831.34
2023-05-10T04:22:49.239Z,98834.72
2023-05-10T04:25:16.482Z,98832.19
2023-05-10T04:27:44.093Z,98821.38
2023-05-10T04:30:11.672Z,98825.06
2023-05-10T04:32:38.914Z,98833.63
2023-05-10T04:35:06.466Z,98815.00
2023-05-10T04:37:33.683Z,98813.91
2023-05-10T04:40:02.565Z,98816.75
2023-05-10T04:42:29.740Z,98802.44
2023-05-10T04:44:57.006Z,98804.94
2023-05-10T04:47:24.135Z,98808.84
2023-05-10T04:49:51.364Z,98801.38
2023-05-10T04:52:18.554Z,98806.44
2023-05-10T04:54:45.663Z,98808.00
2023-05-10T04:57:14.467Z,98801.72
2023-05-10T04:59:41.628Z,98801.72
2023-05-10T05:02:09.230Z,98796.72
2023-05-10T05:04:36.615Z,98794.19
2023-05-10T05:07:03.726Z,98790.38
2023-05-10T05:09:31.167Z,98792.84
2023-05-10T05:11:58.496Z,98792.03
2023-05-10T05:14:27.308Z,98787.44
2023-05-10T05:16:54.611Z,98786.69
2023-05-10T05:19:21.757Z,98783.38
2023-05-10T05:21:48.948Z,98777.00
2023-05-10T05:24:16.196Z,98778.69
2023-05-10T05:26:43.454Z,98773.19
2023-05-10T05:29:10.971Z,98767.97
2023-05-10T05:31:40.015Z,98763.81
2023-05-10T05:34:07.575Z,98768.19
2023-05-10T05:36:37.702Z,98761.53
2023-05-10T05:39:05.804Z,98757.13
2023-05-10T05:41:33.593Z,98754.38
2023-05-10T05:44:00.843Z,98749.94
2023-05-10T05:46:28.889Z,98741.81
2023-05-10T05:48:57.634Z,98742.44
2023-05-10T05:51:24.830Z,98742.41
2023-05-10T05:53:51.905Z,98735.91
2023-05-10T05:56:19.023Z,98742.78
2023-05-10T05:58:46.114Z,98737.72
2023-05-10T06:01:13.239Z,98745.22
2023-05-10T06:03:40.832Z,98738.00
2023-05-10T06:06:09.631Z,98733.66
2023-05-10T06:08:37.837Z,98728.28
2023-05-10T06:11:06.193Z,98719.56
2023-05-10T06:13:33.906Z,98725.47
2023-05-10T06:16:01.867Z,98729.44
2023-05-10T06:18:30.013Z,98715.06
2023-05-10T06:20:57.105Z,98724.34
2023-05-10T06:23:26.057Z,98718.28
2023-05-10T06:25:53.147Z,98718.97
2023-05-10T06:28:20.235Z,98719.38
2023-05-10T06:30:47.300Z,98707.75
2023-05-10T06:33:15.119Z,98709.88
2023-05-10T06:35:42.171Z,98700.09
2023-05-10T06:38:09.668Z,98699.88
2023-05-10T06:40:42.213Z,98713.19
2023-05-10T06:43:09.906Z,98708.34
2023-05-10T06:45:37.073Z,98705.19
2023-05-10T06:48:05.127Z,98703.25
2023-05-10T06:50:32.971Z,98703.47
2023-05-10T06:53:00.788Z,98702.44
2023-05-10T06:55:28.522Z,98695.66
2023-05-10T06:57:57.055Z,98692.03
2023-05-10T07:00:24.188Z,98683.88
2023-05-10T07:02:53.068Z,98686.00
2023-05-10T07:05:23.448Z,98686.53
2023-05-10T07:07:50.522Z,98686.38
2023-05-10T07:10:17.726Z,98683.47
2023-05-10T07:12:45.591Z,98674.53
2023-05-10T07:15:16.150Z,98670.63
2023-05-10T07:17:45.904Z,98676.66
2023-05-10T07:20:14.062Z,98675.00
2023-05-10T07:22:41.174Z,98672.63
2023-05-10T07:25:08.694Z,98665.41
2023-05-10T07:27:35.785Z,98660.03
2023-05-10T07:30:03.524Z,98661.59
2023-05-10T07:32:32.901Z,98661.31
2023-05-10T07:35:00.196Z,98667.22
2023-05-10T07:37:27.280Z,98655.28
2023-05-10T07:39:54.329Z,98656.25
2023-05-10T07:42:22.091Z,98655.34
2023-05-10T07:44:49.123Z,98655.34
2023-05-10T07:47:16.693Z,98651.78
2023-05-10T07:49:45.762Z,98652.34
2023-05-10T07:52:12.831Z,98646.09
2023-05-10T07:54:41.170Z,98638.34
2023-05-10T07:57:09.120Z,98647.28
2023-05-10T07:59:36.221Z,98631.47
2023-05-10T08:02:03.441Z,98635.94
2023-05-10T08:04:30.610Z,98628.25
2023-05-10T08:06:59.172Z,98631.56
2023-05-10T08:09:26.296Z,98627.50
2023-05-10T08:11:53.579Z,98621.09
2023-05-10T08:14:20.743Z,98616.66
2023-05-10T08:16:48.181Z,98613.22
2023-05-10T08:19:15.785Z,98608.97
2023-05-10T08:21:43.167Z,98612.34
2023-05-10T08:24:11.779Z,98609.63
2023-05-10T08:26:39.840Z,98605.91
2023-05-10T08:29:07.392Z,98608.72
2023-05-10T08:31:35.130Z,98593.81
2023-05-10T08:34:02.382Z,98594.72
2023-05-10T08:36:29.625Z,98579.16
2023-05-10T08:38:57.187Z,98582.84
2023-05-10T08:41:25.817Z,98585.41
2023-05-10T08:43:53.218Z,98584.81
2023-05-10T08:46:21.422Z,98579.16
2023-05-10T08:48:49.368Z,98570.19
2023-05-10T08:51:19.359Z,98567.97
2023-05-10T08:53:47.536Z,98562.34
2023-05-10T08:56:14.925Z,98566.31
2023-05-10T08:58:44.331Z,98556.66
2023-05-10T09:01:12.392Z,98554.13
2023-05-10T09:03:40.598Z,98553.78
2023-05-10T09:06:07.865Z,98544.91
2023-05-10T09:08:35.508Z,98542.78
2023-05-10T09:11:02.833Z,98537.19
2023-05-10T09:13:30.690Z,98537.25
2023-05-10T09:16:04.418Z,98540.81
2023-05-10T09:18:37.219Z,98535.44
2023-05-10T09:21:04.666Z,98533.31
2023-05-10T09:23:31.931Z,98527.38
2023-05-10T09:26:05.695Z,98527.31
2023-05-10T09:28:33.592Z,98517.28
2023-05-10T09:31:02.264Z,98520.75
2023-05-10T09:33:29.385Z,98513.47
2023-05-10T09:35:56.544Z,98510.22
2023-05-10T09:38:23.823Z,98515.63
2023-05-10T09:40:54.087Z,98506.03
2023-05-10T09:43:21.710Z,98505.75
2023-05-10T09:45:49.813Z,98512.56
2023-05-10T09:48:18.935Z,98502.38
2023-05-10T09:50:45.982Z,98502.63
2023-05-10T09:53:15.503Z,98495.69
2023-05-10T09:55:43.424Z,98501.31
2023-05-10T09:58:10.554Z,98495.53
2023-05-10T10:00:39.074Z,98489.81
2023-05-10T10:03:06.546Z,98495.66
2023-05-10T10:05:36.451Z,98488.53
2023-05-10T10:08:04.954Z,98487.56
2023-05-10T10:10:33.389Z,98485.56
2023-05-10T10:13:01.175Z,98472.72
2023-05-10T10:15:29.145Z,98474.03
2023-05-10T10:17:56.517Z,98473.16
2023-05-10T10:20:24.323Z,98464.56
2023-05-10T10:22:52.947Z,98464.19
2023-05-10T10:25:21.332Z,98465.75
2023-05-10T10:27:55.780Z,98456.72
2023-05-10T10:30:27.294Z,98451.97
2023-05-10T10:33:16.600Z,98443.94
2023-05-10T10:35:55.180Z,98449.16
2023-05-10T10:38:24.507Z,98453.44
2023-05-10T10:41:03.592Z,98447.69
2023-05-10T10:43:31.839Z,98444.25
2023-05-10T10:46:12.781Z,98441.66
2023-05-10T10:48:40.545Z,98446.06
2023-05-10T10:51:07.663Z,98433.38
2023-05-10T10:53:38.724Z,98435.03
2023-05-10T10:56:08.221Z,98430.38
2023-05-10T10:58:36.393Z,98425.56
2023-05-10T11:01:16.048Z,98418.59
2023-05-10T11:04:16.025Z,98416.78
2023-05-10T11:06:44.229Z,98418.31
2023-05-10T11:09:14.333Z,98409.47
2023-05-10T11:11:53.063Z,98413.00
2023-05-10T11:14:22.127Z,98405.72
2023-05-10T11:16:49.950Z,98402.78
2023-05-10T11:19:18.347Z,98407.53
2023-05-10T11:21:47.818Z,98394.91
2023-05-10T11:24:18.191Z,98385.75
2023-05-10T11:26:46.428Z,98389.03
2023-05-10T11:29:15.310Z,98385.06
2023-05-10T11:31:44.369Z,98380.75
2023-05-10T11:34:11.960Z,98380.28
2023-05-10T11:36:40.890Z,98372.91
2023-05-10T11:39:08.341Z,98373.19
2023-05-10T11:41:38.436Z,98369.16
2023-05-10T11:44:05.828Z,98366.13
2023-05-10T11:46:34.003Z,98367.34
2023-05-10T11:49:03.133Z,98362.13
2023-05-10T11:51:31.142Z,98354.91
2023-05-10T11:53:58.909Z,98356.81
2023-05-10T11:56:26.468Z,98356.34
2023-05-10T11:58:56.673Z,98355.28
2023-05-10T12:01:24.687Z,98356.22
2023-05-10T12:03:53.001Z,98349.50
2023-05-10T12:06:21.642Z,98345.16
2023-05-10T12:08:50.477Z,98336.47
2023-05-10T12:11:17.515Z,98335.72
2023-05-10T12:13:45.814Z,98334.31
2023-05-10T12:16:18.995Z,98330.84
2023-05-10T12:18:49.184Z,98333.53
2023-05-10T12:21:17.242Z,98326.53
2023-05-10T12:23:46.770Z,98326.09
2023-05-10T12:26:15.985Z,98332.25
2023-05-10T12:28:43.129Z,98319.06
2023-05-10T12:31:10.812Z,98325.34
2023-05-10T12:33:41.768Z,98325.63
2023-05-10T12:36:10.278Z,98322.91
2023-05-10T12:38:38.681Z,98314.63
2023-05-10T12:41:07.157Z,98312.34
2023-05-10T12:43:35.362Z,98311.94
2023-05-10T12:46:07.078Z,98314.44
2023-05-10T12:48:34.467Z,98305.31
2023-05-10T12:51:04.833Z,98306.50
2023-05-10T12:53:32.446Z,98298.25
2023-05-10T12:56:00.235Z,98298.00
2023-05-10T12:58:35.468Z,98293.47
2023-05-10T13:01:04.578Z,98293.88
2023-05-10T13:03:32.310Z,98287.81
2023-05-10T13:05:59.925Z,98292.03
2023-05-10T13:08:29.270Z,98290.13
2023-05-10T13:10:56.994Z,98282.88
2023-05-10T13:13:24.053Z,98279.97
2023-05-10T13:15:51.176Z,98279.94
2023-05-10T13:18:18.583Z,98274.13
2023-05-10T13:20:45.826Z,98283.03
2023-05-10T13:23:13.929Z,98273.81
2023-05-10T13:25:42.974Z,98269.03
2023-05-10T13:28:10.425Z,98275.25
2023-05-10T13:30:37.874Z,98275.38
2023-05-10T13:33:05.035Z,98268.94
2023-05-10T13:35:32.210Z,98273.75
2023-05-10T13:37:59.350Z,98271.44
2023-05-10T13:40:30.142Z,98262.28
2023-05-10T13:42:58.663Z,98262.88
2023-05-10T13:45:25.822Z,98261.84
2023-05-10T13:47:53.433Z,98254.72
2023-05-10T13:50:20.720Z,98254.09
2023-05-10T13:52:48.649Z,98260.13
2023-05-10T13:55:17.528Z,98254.09
2023-05-10T13:57:45.839Z,98258.81
2023-05-10T14:00:14.931Z,98257.41
2023-05-10T14:02:43.084Z,98256.34
2023-05-10T14:05:10.326Z,98251.16
2023-05-10T14:07:37.394Z,98259.25
2023-05-10T14:10:05.249Z,98256.56
2023-05-10T14:12:33.069Z,98258.41
2023-05-10T14:15:00.773Z,98253.66
2023-05-10T14:17:29.382Z,98255.06
2023-05-10T14:19:56.642Z,98254.22
2023-05-10T14:22:24.490Z,98257.13
2023-05-10T14:24:51.762Z,98252.91
2023-05-10T14:27:19.080Z,98249.66
2023-05-10T14:29:46.353Z,98247.50
2023-05-10T14:32:13.947Z,98252.50
2023-05-10T14:34:42.839Z,98246.22
2023-05-10T14:37:11.504Z,98247.50
2023-05-10T14:39:38.874Z,98252.91
2023-05-10T14:42:06.016Z,98244.81
2023-05-10T14:44:33.189Z,98244.81
2023-05-10T14:47:00.352Z,98252.06
2023-05-10T14:49:27.432Z,98252.69
2023-05-10T14:51:56.069Z,98248.75
2023-05-10T14:54:23.165Z,98246.66
2023-05-10T14:56:50.780Z,98247.72
2023-05-10T14:59:19.278Z,98247.63
2023-05-10T15:01:47.128Z,98242.47
2023-05-10T15:04:15.656Z,98241.25
2023-05-10T15:06:43.311Z,98240.38
2023-05-10T15:09:11.810Z,98238.53
2023-05-10T15:11:40.181Z,98242.09
2023-05-10T15:14:07.335Z,98237.50
2023-05-10T15:16:36.304Z,98238.13
2023-05-10T15:19:04.784Z,98234.34
2023-05-10T15:21:32.029Z,98238.09
2023-05-10T15:23:59.619Z,98240.41
2023-05-10T15:26:28.132Z,98240.25
2023-05-10T15:28:55.761Z,98245.72
2023-05-10T15:31:24.483Z,98242.03
2023-05-10T15:33:53.799Z,98235.38
2023-05-10T15:36:22.163Z,98244.16
2023-05-10T15:38:49.750Z,98232.69
2023-05-10T15:41:17.227Z,98237.50
2023-05-10T15:43:46.371Z,98239.16
2023-05-10T15:46:13.503Z,98239.16
2023-05-10T15:48:40.619Z,98235.63
2023-05-10T15:51:08.324Z,98237.50
2023-05-10T15:53:35.819Z,98245.59
2023-05-10T15:56:03.522Z,98246.84
2023-05-10T15:58:31.704Z,98249.50
2023-05-10T16:01:00.868Z,98250.56
2023-05-10T16:03:28.566Z,98245.41
2023-05-10T16:05:55.837Z,98252.06
2023-05-10T16:08:23.108Z,98254.78
2023-05-10T16:10:51.246Z,98250.38
2023-05-10T16:13:18.401Z,98252.91
2023-05-10T16:15:46.595Z,98251.22
2023-05-10T16:18:15.809Z,98255.41
2023-05-10T16:20:42.881Z,98255.81
2023-05-10T16:23:10.236Z,98249.72
2023-05-10T16:25:37.581Z,98256.00
2023-05-10T16:28:05.016Z,98252.47
2023-05-10T16:30:32.340Z,98253.13
2023-05-10T16:33:00.525Z,98250.81
2023-05-10T16:35:30.274Z,98255.19
2023-05-10T16:37:57.830Z,98256.00
2023-05-10T16:40:25.290Z,98250.22
2023-05-10T16:42:52.976Z,98243.34
2023-05-10T16:45:20.470Z,98250.41
2023-05-10T16:47:48.314Z,98248.09
2023-05-10T16:50:15.952Z,98247.72
2023-05-10T16:52:45.683Z,98249.56
2023-05-10T16:55:12.804Z,98251.06
2023-05-10T16:57:40.677Z,98240.84
2023-05-10T17:00:08.899Z,98246.00
2023-05-10T17:02:36.553Z,98244.41
2023-05-10T17:05:04.595Z,98246.25
2023-05-10T17:07:32.840Z,98247.75
2023-05-10T17:10:02.778Z,98246.47
2023-05-10T17:12:30.343Z,98253.56
2023-05-10T17:14:57.894Z,98251.88
2023-05-10T17:17:26.274Z,98254.22
2023-05-10T17:19:53.908Z,98246.28
2023-05-10T17:22:22.156Z,98248.78
2023-05-10T17:24:50.326Z,98244.59
2023-05-10T17:27:19.504Z,98254.22
2023-05-10T17:29:47.713Z,98244.03
2023-05-10T17:32:15.418Z,98252.91
2023-05-10T17:34:42.905Z,98254.22
2023-05-10T17:37:10.651Z,98256.69
2023-05-10T17:39:39.926Z,98254.22
2023-05-10T17:42:07.732Z,98249.41
2023-05-10T17:44:37.398Z,98246.50
2023-05-10T17:47:04.929Z,98252.72
2023-05-10T17:49:33.559Z,98249.16
2023-05-10T17:52:01.141Z,98249.00
2023-05-10T17:54:29.251Z,98256.28
2023-05-10T17:56:57.394Z,98247.13
2023-05-10T17:59:25.537Z,98249.16
2023-05-10T18:01:55.337Z,98252.16
2023-05-10T18:04:23.446Z,98248.56
2023-05-10T18:06:51.223Z,98251.28
2023-05-10T18:09:18.953Z,98249.44
2023-05-10T18:11:46.058Z,98249.81
2023-05-10T18:14:14.617Z,98255.47
2023-05-10T18:16:43.788Z,98252.31
2023-05-10T18:19:13.623Z,98251.50
2023-05-10T18:21:41.777Z,98252.13
2023-05-10T18:24:09.887Z,98249.22
2023-05-10T18:26:38.092Z,98254.84
2023-05-10T18:29:06.857Z,98251.75
2023-05-10T18:31:34.090Z,98250.91
2023-05-10T18:34:03.013Z,98248.22
2023-05-10T18:36:32.381Z,98244.28
2023-05-10T18:39:00.512Z,98238.47
2023-05-10T18:41:28.345Z,98237.00
2023-05-10T18:43:56.434Z,98236.38
2023-05-10T18:46:23.606Z,98242.19
2023-05-10T18:48:51.963Z,98243.88
2023-05-10T18:51:19.562Z,98243.06
2023-05-10T18:53:48.112Z,98238.72
2023-05-10T18:56:16.207Z,98242.25
2023-05-10T18:58:43.555Z,98229.97
2023-05-10T19:01:11.503Z,98240.56
2023-05-10T19:03:39.725Z,98236.41
2023-05-10T19:06:07.399Z,98233.53
2023-05-10T19:08:34.464Z,98233.09
2023-05-10T19:11:04.131Z,98232.88
2023-05-10T19:13:31.184Z,98240.34
2023-05-10T19:16:03.077Z,98225.78
2023-05-10T19:18:33.034Z,98230.16
2023-05-10T19:21:00.835Z,98229.97
2023-05-10T19:23:28.416Z,98235.56
2023-05-10T19:25:56.063Z,98232.88
2023-05-10T19:28:25.692Z,98232.03
2023-05-10T19:30:54.624Z,98235.59
2023-05-10T19:33:22.880Z,98230.38
2023-05-10T19:35:50.441Z,98230.38
2023-05-10T19:38:21.548Z,98225.22
2023-05-10T19:40:49.833Z,98231.44
2023-05-10T19:43:17.930Z,98236.84
2023-05-10T19:45:47.218Z,98231.44
2023-05-10T19:48:16.215Z,98234.16
2023-05-10T19:50:43.244Z,98229.78
2023-05-10T19:53:11.046Z,98235.63
2023-05-10T19:55:39.130Z,98232.91
2023-05-10T19:58:06.787Z,98224.59
2023-05-10T20:00:35.116Z,98226.69
2023-05-10T20:03:05.910Z,98220.25
2023-05-10T20:05:35.311Z,98222.94
2023-05-10T20:08:03.019Z,98226.28
2023-05-10T20:10:30.503Z,98219.03
2023-05-10T20:12:58.240Z,98214.88
2023-05-10T20:15:26.178Z,98219.44
2023-05-10T20:17:53.805Z,98211.16
2023-05-10T20:20:23.185Z,98219.88
2023-05-10T20:22:51.463Z,98218.75
2023-05-10T20:25:19.139Z,98222.09
2023-05-10T20:27:46.598Z,98210.78
2023-05-10T20:30:14.583Z,98213.69
2023-05-10T20:32:42.060Z,98219.69
2023-05-10T20:35:10.257Z,98221.34
2023-05-10T20:37:39.480Z,98213.84
2023-05-10T20:40:08.030Z,98219.22
2023-05-10T20:42:35.485Z,98212.97
2023-05-10T20:45:02.812Z,98222.91
2023-05-10T20:47:30.288Z,98216.44
2023-05-10T20:49:58.060Z,98221.88
2023-05-10T20:52:25.897Z,98217.91
2023-05-10T20:54:55.160Z,98223.72
2023-05-10T20:57:22.274Z,98214.34
2023-05-10T20:59:49.904Z,98218.31
2023-05-10T21:02:17.579Z,98215.16
2023-05-10T21:04:44.649Z,98214.09
2023-05-10T21:07:11.824Z,98219.97
2023-05-10T21:09:39.369Z,98215.78
2023-05-10T21:12:09.975Z,98206.81
2023-05-10T21:14:37.964Z,98212.63
2023-05-10T21:17:05.533Z,98201.19
2023-05-10T21:19:33.066Z,98217.44
2023-05-10T21:22:00.777Z,98208.66
2023-05-10T21:24:28.178Z,98216.53
2023-05-10T21:26:55.591Z,98207.81
2023-05-10T21:29:24.125Z,98213.03
2023-05-10T21:31:51.697Z,98215.06
2023-05-10T21:34:19.341Z,98217.78
2023-05-10T21:36:46.771Z,98218.44
2023-05-10T21:39:13.840Z,98210.94
2023-05-10T21:41:41.357Z,98212.38
2023-05-10T21:44:08.905Z,98219.44
2023-05-10T21:46:37.547Z,98204.84
2023-05-10T21:49:05.014Z,98215.88
2023-05-10T21:51:32.403Z,98220.03
2023-05-10T21:54:00.185Z,98221.50
2023-05-10T21:56:28.101Z,98224.00
2023-05-10T21:58:55.303Z,98216.53
2023-05-10T22:01:22.659Z,98219.88
2023-05-10T22:03:51.559Z,98226.13
2023-05-10T22:06:18.905Z,98226.13
2023-05-10T22:08:46.612Z,98230.41
2023-05-10T22:11:13.792Z,98228.63
2023-05-10T22:13:40.874Z,98233.41
2023-05-10T22:16:08.941Z,98229.47
2023-05-10T22:18:37.255Z,98231.53
2023-05-10T22:21:09.350Z,98239.84
2023-05-10T22:23:37.212Z,98242.56
2023-05-10T22:26:05.013Z,98232.56
2023-05-10T22:28:32.270Z,98242.56
2023-05-10T22:31:00.085Z,98248.41
2023-05-10T22:33:28.500Z,98246.28
2023-05-10T22:35:56.144Z,98247.16
2023-05-10T22:38:25.282Z,98240.03
2023-05-10T22:40:52.572Z,98244.25
2023-05-10T22:43:20.160Z,98236.53
2023-05-10T22:45:48.157Z,98250.25
2023-05-10T22:48:15.565Z,98252.38
2023-05-10T22:50:43.311Z,98245.84
2023-05-10T22:53:11.058Z,98249.22
2023-05-10T22:55:40.158Z,98252.53
2023-05-10T22:58:08.020Z,98252.72
2023-05-10T23:00:35.336Z,98255.88
2023-05-10T23:03:02.694Z,98247.72
2023-05-10T23:05:29.920Z,98256.09
2023-05-10T23:07:57.015Z,98251.69
2023-05-10T23:10:24.761Z,98254.38
2023-05-10T23:12:53.264Z,98255.69
2023-05-10T23:15:20.720Z,98256.06
2023-05-10T23:17:47.997Z,98256.94
2023-05-10T23:20:15.251Z,98252.72
2023-05-10T23:22:45.240Z,98248.97
2023-05-10T23:25:12.400Z,98244.84
2023-05-10T23:27:39.523Z,98248.59
2023-05-10T23:30:09.007Z,98256.94
2023-05-10T23:32:36.376Z,98244.84
2023-05-10T23:35:03.734Z,98251.69
2023-05-10T23:37:30.944Z,98243.16
2023-05-10T23:39:58.145Z,98238.16
2023-05-10T23:42:25.367Z,98236.47
2023-05-10T23:44:53.268Z,98243.97
2023-05-10T23:47:21.831Z,98239.19
2023-05-10T23:49:50.059Z,98235.41
2023-05-10T23:52:17.315Z,98243.53
2023-05-10T23:54:45.867Z,98242.69
2023-05-10T23:57:13.090Z,98242.69
2023-05-10T23:59:40.211Z,98244.59
